Welcome to Des Moines Iowa Weather. I am an independent private personal weather station on the Northwest Side of Des Moines, Iowa. Just East of Windsor Heights and just West of Glendale . This site is also mobile friendly.

There are no active watches, warnings or advisories


Visit our other weather sites:

Historical Data

Weather Station Setup



Weather Underground History page Text

Daily Summary for January 7, 2018 Units:  Metric    English   Both
« Previous Day
Next Day »
Daily Weekly Monthly Yearly Custom
  High: Low: Average:
Temperature: 3.7 °C -8.8 °C -1.8 °C
Dew Point: -1.1 °C -13.9 °C -5.8 °C
Humidity: 91 % 68 % 75 %
Wind Speed: 8 km/h -1609.1 km/h -16.1 km/h
Wind Gust: 16.1 km/h - -
Wind:- -
Pressure: 1022.2 hPa 1012.1 hPa -
Precipitation: 4.06 mm    
Historical Graphs
 
 
Tabular Data for January 7, 2018
Time Temperature Dew Point Pressure Wind Wind Speed Wind Gust Humidity Rainfall Rate (Hourly)
00:14 -8.8 °C -13.9 °C 1022.2 hPa SSE 4.8 km/h 9.7 km/h 68 % 0 mm
00:29 -8.7 °C -13.9 °C 1021.9 hPa SE 4.8 km/h 6.4 km/h 68 % 0 mm
00:44 -8.5 °C -13.3 °C 1021.9 hPa SSE 4.8 km/h 8 km/h 68 % 0 mm
00:59 -8.3 °C -13.3 °C 1021.2 hPa SSE 3.2 km/h 9.7 km/h 68 % 0 mm
01:15 -8.2 °C -13.3 °C 1021.2 hPa Calm   12.9 km/h 68 % 0 mm
01:30 -8.2 °C -13.3 °C 1020.9 hPa Calm   8 km/h 68 % 0 mm
01:45 -7.9 °C -12.8 °C 1020.9 hPa SSE 1.6 km/h 8 km/h 69 % 0 mm
02:00 -7.8 °C -12.8 °C 1020.5 hPa Calm   8 km/h 68 % 0 mm
02:15 -7.7 °C -12.8 °C 1020.2 hPa Calm   4.8 km/h 68 % 0 mm
02:30 -7.6 °C -12.8 °C 1020.2 hPa Calm   9.7 km/h 68 % 0 mm
02:45 -7.7 °C -12.8 °C 1020.2 hPa Calm   4.8 km/h 68 % 0 mm
03:00 -7.6 °C -12.2 °C 1019.9 hPa Calm   4.8 km/h 69 % 0 mm
03:15 -7.5 °C -12.2 °C 1019.5 hPa Calm   6.4 km/h 69 % 0 mm
03:30 -7.4 °C -12.2 °C 1019.2 hPa Calm   6.4 km/h 69 % 0 mm
03:45 -7.3 °C -11.7 °C 1018.8 hPa ESE 3.2 km/h 4.8 km/h 70 % 0 mm
04:00 -7.2 °C -11.7 °C 1018.5 hPa ESE 1.6 km/h 4.8 km/h 70 % 0 mm
04:15 -7 °C -11.7 °C 1018.5 hPa SSE 1.6 km/h 11.3 km/h 70 % 0 mm
04:30 -6.9 °C -11.7 °C 1018.2 hPa Calm   3.2 km/h 70 % 0 mm
04:45 -6.7 °C -11.1 °C 1018.2 hPa Calm   4.8 km/h 71 % 0 mm
05:00 -6.6 °C -10.6 °C 1017.8 hPa Calm   4.8 km/h 72 % 0 mm
05:15 -6.3 °C -10.6 °C 1017.8 hPa Calm   8 km/h 72 % 0 mm
05:30 -6.1 °C -10.6 °C 1017.5 hPa SSE 1.6 km/h 3.2 km/h 72 % 0 mm
05:45 -5.7 °C -10 °C 1017.5 hPa Calm   8 km/h 72 % 0 mm
06:00 -5.5 °C -10 °C 1017.5 hPa Calm   4.8 km/h 72 % 0 mm
06:15 -5.3 °C -9.4 °C 1017.5 hPa Calm   4.8 km/h 73 % 0 mm
06:30 -5.2 °C -9.4 °C 1017.2 hPa SSE 6.4 km/h 6.4 km/h 73 % 0 mm
06:45 -5.1 °C -9.4 °C 1017.2 hPa SSE 1.6 km/h 8 km/h 73 % 0 mm
07:00 -5.1 °C -9.4 °C 1016.8 hPa SSE 1.6 km/h 8 km/h 73 % 0 mm
07:15 -5.1 °C -8.9 °C 1016.8 hPa SSE 6.4 km/h 6.4 km/h 74 % 0 mm
07:30 -4.9 °C -8.9 °C 1016.5 hPa South 4.8 km/h 6.4 km/h 75 % 0 mm
07:45 -4.8 °C -8.3 °C 1016.5 hPa South 1.6 km/h 6.4 km/h 75 % 0 mm
08:00 -4.5 °C -8.3 °C 1016.5 hPa South 1.6 km/h 6.4 km/h 76 % 0 mm
08:16 -4.1 °C -7.8 °C 1016.1 hPa South 4.8 km/h 6.4 km/h 76 % 0 mm
08:31 -3.7 °C -7.2 °C 1016.1 hPa North -1609.1 km/h -1607.7 km/h 77 % 0 mm
08:46 -2.8 °C -6.7 °C 1016.1 hPa Calm   12.9 km/h 76 % 0 mm
09:01 -2.1 °C -6.1 °C 1015.8 hPa Calm   8 km/h 75 % 0 mm
09:16 -1.4 °C -5.6 °C 1015.8 hPa Calm   8 km/h 73 % 0 mm
09:31 -0.8 °C -5.6 °C 1015.8 hPa SSE 1.6 km/h 9.7 km/h 71 % 0 mm
09:46 -0.2 °C -5.6 °C 1016.1 hPa Calm   9.7 km/h 69 % 0 mm
10:01 -0.1 °C -5 °C 1015.8 hPa Calm   8 km/h 69 % 0 mm
10:16 0.1 °C -5 °C 1015.8 hPa South 3.2 km/h 6.4 km/h 70 % 0 mm
10:31 0.4 °C -4.4 °C 1015.8 hPa SW 4.8 km/h 14.5 km/h 69 % 0 mm
10:46 0.8 °C -4.4 °C 1015.5 hPa South 1.6 km/h 16.1 km/h 69 % 0 mm
11:01 1.3 °C -3.9 °C 1015.5 hPa South 4.8 km/h 12.9 km/h 70 % 0 mm
11:16 1.6 °C -3.3 °C 1015.1 hPa SW 4.8 km/h 9.7 km/h 70 % 0 mm
11:31 1.6 °C -3.3 °C 1014.8 hPa SSW 4.8 km/h 11.3 km/h 71 % 0 mm
11:47 2.3 °C -2.8 °C 1014.8 hPa SSW 3.2 km/h 12.9 km/h 70 % 0.25 mm
12:01 2.8 °C -2.2 °C 1014.4 hPa South 4.8 km/h 11.3 km/h 69 % 0.25 mm
12:16 3.1 °C -2.2 °C 1014.4 hPa WSW 3.2 km/h 11.3 km/h 68 % 0.25 mm
12:32 3.3 °C -1.7 °C 1013.8 hPa SSW 3.2 km/h 11.3 km/h 69 % 0.76 mm
12:47 3.3 °C -1.7 °C 1013.4 hPa SSW 4.8 km/h 8 km/h 69 % 0.76 mm
13:02 3.5 °C -1.7 °C 1013.1 hPa Calm   11.3 km/h 69 % 1.02 mm
13:17 3.6 °C -1.7 °C 1012.8 hPa West 3.2 km/h 9.7 km/h 69 % 1.52 mm
13:32 3.5 °C -1.7 °C 1012.4 hPa Calm   11.3 km/h 69 % 1.27 mm
13:47 3.5 °C -1.7 °C 1012.8 hPa Calm   12.9 km/h 69 % 1.27 mm
14:02 3.6 °C -1.7 °C 1012.4 hPa SSE 3.2 km/h 8 km/h 69 % 1.27 mm
14:18 3.7 °C -1.7 °C 1012.4 hPa Calm   6.4 km/h 69 % 1.02 mm
14:32 3.6 °C -1.7 °C 1012.4 hPa Calm   4.8 km/h 69 % 0.76 mm
14:48 3.6 °C -1.7 °C 1012.4 hPa SSE 4.8 km/h 8 km/h 70 % 0.76 mm
15:06 3.6 °C -1.7 °C 1012.4 hPa Calm   8 km/h 70 % 0.76 mm
15:17 3.7 °C -1.1 °C 1012.1 hPa SSE 4.8 km/h 4.8 km/h 71 % 0.76 mm
15:32 3.6 °C -1.1 °C 1012.1 hPa Calm   6.4 km/h 71 % 0.76 mm
15:47 3.6 °C -1.1 °C 1012.1 hPa Calm   6.4 km/h 72 % 0.76 mm
16:02 3.6 °C -1.1 °C 1012.4 hPa Calm   3.2 km/h 72 % 0.51 mm
16:17 3.3 °C -1.1 °C 1012.4 hPa Calm   4.8 km/h 74 % 0.51 mm
16:32 3.1 °C -1.1 °C 1012.4 hPa Calm   1.6 km/h 75 % 0.51 mm
16:47 2.6 °C -1.1 °C 1012.4 hPa Calm   4.8 km/h 76 % 0.25 mm
17:02 2.3 °C -1.1 °C 1012.4 hPa Calm     77 % 0.25 mm
17:17 1.9 °C -1.7 °C 1012.4 hPa Calm   1.6 km/h 77 % 0 mm
17:32 1.7 °C -1.7 °C 1013.1 hPa Calm     78 % 0 mm
17:47 1.3 °C -2.2 °C 1013.4 hPa Calm     78 % 0 mm
18:02 0.8 °C -2.2 °C 1013.1 hPa Calm     79 % 0 mm
18:32 -0.1 °C -2.8 °C 1013.4 hPa Calm     83 % 0 mm
18:47 -0.4 °C -2.8 °C 1013.4 hPa Calm   3.2 km/h 83 % 0 mm
19:02 -0.8 °C -3.3 °C 1013.4 hPa Calm     84 % 0 mm
19:17 -1.2 °C -3.3 °C 1013.4 hPa Calm   3.2 km/h 85 % 0 mm
19:32 -1.3 °C -3.3 °C 1013.8 hPa Calm     86 % 0 mm
19:47 -1.5 °C -3.3 °C 1013.4 hPa Calm     87 % 0 mm
20:02 -1.6 °C -3.3 °C 1013.4 hPa Calm     87 % 0 mm
20:32 -1.8 °C -3.3 °C 1013.8 hPa Calm     88 % 0 mm
20:47 -2.1 °C -3.9 °C 1014.1 hPa Calm     88 % 0 mm
21:02 -2 °C -3.3 °C 1014.1 hPa WSW 1.6 km/h 4.8 km/h 89 % 0 mm
21:17 -1.3 °C -2.8 °C 1014.1 hPa NW 4.8 km/h 8 km/h 91 % 0 mm
21:32 -0.8 °C -2.2 °C 1014.1 hPa WNW 1.6 km/h 6.4 km/h 91 % 0 mm
21:47 -0.4 °C -1.7 °C 1014.4 hPa NW 8 km/h 9.7 km/h 90 % 0 mm
22:02 -0.2 °C -1.7 °C 1014.4 hPa NNW 1.6 km/h 8 km/h 89 % 0 mm
22:17 -0.1 °C -2.2 °C 1014.8 hPa NNW 1.6 km/h 6.4 km/h 87 % 0 mm
22:47 -0.4 °C -2.2 °C 1015.1 hPa Calm   6.4 km/h 86 % 0 mm
23:02 -0.5 °C -2.8 °C 1015.5 hPa Calm   8 km/h 86 % 0 mm
23:17 -0.7 °C -2.8 °C 1015.5 hPa NW 1.6 km/h 9.7 km/h 86 % 0 mm
23:47 -1.1 °C -2.8 °C 1015.5 hPa NW 4.8 km/h 9.7 km/h 87 % 0 mm
Des Moines Weather and Climate
Compliments of Weather Underground - 3 mb

Script developed by  Jim McMurry - jmcmurry@mwt.net Adapted for the template by  Wim van der Kuil - Leuven-Template.eu

You find our weather info also at:

Weather Underground

Equipment we use:

Weather-station
Davis VP2 Plus

Weather-program
Davis Weatherlink.Com

Weather-server
iMac (Retina 4K, 21.5-inch, Late 2015)

Provider
Hostmonster.com

Davis VP2 Plus

Davis Weatherlink.Com

iMac (Retina 4K, 21.5-inch, Late 2015)

Hostmonster.com